Time;durP1;ratioP1;P1;durP2;ratioP2;P2;SDS_P1;SDS_P2;PMS_P1;PMS_P2;Temp;Humidity;BMP_temperature;BMP_pressure;BME280_temperature;BME280_humidity;BME280_pressure;Samples;Min_cycle;Max_cycle;Signal;HPM_P1;HPM_P2
2022/06/21 00:01:01;;;;;;;7.28;1.90;;;11.50;99.90;;;;;;4918399;29;20082;-78
2022/06/21 00:03:27;;;;;;;6.95;2.20;;;11.50;99.90;;;;;;4920056;29;20039;-78
2022/06/21 00:05:54;;;;;;;8.13;1.95;;;11.50;99.90;;;;;;4918307;29;20989;-78
2022/06/21 00:08:34;;;;;;;7.07;1.80;;;11.50;99.90;;;;;;4940509;29;20047;-78
2022/06/21 00:11:00;;;;;;;5.53;1.65;;;11.50;99.90;;;;;;4934012;29;20095;-78
2022/06/21 00:13:29;;;;;;;5.72;2.03;;;11.50;99.90;;;;;;4919687;29;20047;-78
2022/06/21 00:16:00;;;;;;;9.32;2.42;;;11.50;99.90;;;;;;4915852;29;20818;-78
2022/06/21 00:18:28;;;;;;;6.78;1.90;;;11.50;99.90;;;;;;4935902;29;20149;-78
2022/06/21 00:20:54;;;;;;;5.85;1.50;;;11.60;99.90;;;;;;4940433;29;20774;-78
2022/06/21 00:23:29;;;;;;;6.95;2.15;;;11.60;99.90;;;;;;4918521;29;20046;-79
2022/06/21 00:25:55;;;;;;;6.47;1.67;;;11.60;99.90;;;;;;4918644;29;20473;-78
2022/06/21 00:28:21;;;;;;;7.63;2.13;;;11.50;99.90;;;;;;4919525;29;20684;-78
2022/06/21 00:30:49;;;;;;;8.45;1.85;;;11.50;99.90;;;;;;4921074;29;21456;-78
2022/06/21 00:33:17;;;;;;;7.22;1.65;;;11.50;99.90;;;;;;4918448;29;20063;-78
2022/06/21 00:35:46;;;;;;;6.05;1.70;;;11.50;99.90;;;;;;4933077;29;20602;-78
2022/06/21 00:38:19;;;;;;;7.32;2.13;;;11.40;99.90;;;;;;4937420;29;20062;-78
2022/06/21 00:40:44;;;;;;;9.75;1.80;;;11.40;99.90;;;;;;4936377;29;20187;-78
2022/06/21 00:43:33;;;;;;;5.50;1.60;;;11.40;99.90;;;;;;4918790;29;20538;-78
2022/06/21 00:46:01;;;;;;;9.13;1.90;;;11.30;99.90;;;;;;4936057;29;20075;-78
2022/06/21 00:48:36;;;;;;;6.28;1.67;;;11.30;99.90;;;;;;4935116;28;20047;-78
2022/06/21 00:51:22;;;;;;;7.32;2.20;;;11.30;99.90;;;;;;4933790;29;20085;-79
2022/06/21 00:53:56;;;;;;;6.00;1.77;;;11.20;99.90;;;;;;4920308;29;20063;-79
2022/06/21 00:56:28;;;;;;;6.43;1.90;;;11.20;99.90;;;;;;4934810;29;20047;-79
2022/06/21 00:58:54;;;;;;;5.35;1.73;;;11.20;99.90;;;;;;4938297;29;20567;-79
2022/06/21 01:01:32;;;;;;;8.90;1.80;;;11.20;99.90;;;;;;4920779;29;20043;-79
2022/06/21 01:04:21;;;;;;;8.35;1.98;;;11.20;99.90;;;;;;4935572;29;20090;-79
2022/06/21 01:06:51;;;;;;;7.28;1.80;;;11.10;99.90;;;;;;4939607;28;20376;-78
2022/06/21 01:09:22;;;;;;;7.07;1.88;;;11.10;99.90;;;;;;4917584;29;20845;-79
2022/06/21 01:11:58;;;;;;;6.25;2.15;;;11.00;99.90;;;;;;4933881;29;20047;-78
2022/06/21 01:14:24;;;;;;;6.20;1.70;;;11.00;99.90;;;;;;4915763;29;20047;-79
2022/06/21 01:16:51;;;;;;;9.48;2.63;;;11.00;99.90;;;;;;4919237;29;20051;-78
2022/06/21 01:19:43;;;;;;;4.35;1.80;;;11.10;99.90;;;;;;4917557;29;20063;-78
2022/06/21 01:22:45;;;;;;;5.03;2.25;;;10.90;99.90;;;;;;4920073;29;20062;-79
2022/06/21 01:25:25;;;;;;;6.80;1.67;;;10.90;99.90;;;;;;4917217;28;20051;-79
2022/06/21 01:27:56;;;;;;;5.88;1.77;;;10.90;99.90;;;;;;4940399;28;20075;-79
2022/06/21 01:30:27;;;;;;;6.43;1.63;;;10.80;99.90;;;;;;4917509;29;20475;-79
2022/06/21 01:32:56;;;;;;;4.90;1.98;;;10.70;99.90;;;;;;4935426;28;20134;-78
2022/06/21 01:35:42;;;;;;;7.60;2.17;;;10.70;99.90;;;;;;4939573;28;20054;-79
2022/06/21 01:38:14;;;;;;;5.75;1.77;;;10.70;99.90;;;;;;4919597;28;20063;-79
2022/06/21 01:40:44;;;;;;;6.03;1.80;;;10.70;99.90;;;;;;4934691;29;20099;-79
2022/06/21 01:43:14;;;;;;;6.72;2.47;;;10.70;99.90;;;;;;4907244;29;20051;-80
2022/06/21 01:45:45;;;;;;;6.75;2.33;;;10.70;99.90;;;;;;4931147;29;20055;-79
2022/06/21 01:48:21;;;;;;;11.38;2.20;;;10.70;99.90;;;;;;4942027;28;20082;-80
2022/06/21 01:50:48;;;;;;;6.13;2.47;;;10.90;99.90;;;;;;4940114;28;20070;-79
2022/06/21 01:53:16;;;;;;;7.45;2.03;;;10.70;99.90;;;;;;4939413;28;20098;-80
2022/06/21 01:55:47;;;;;;;5.72;2.20;;;10.80;99.90;;;;;;4938426;29;20059;-79
2022/06/21 01:58:18;;;;;;;7.20;2.15;;;10.60;99.90;;;;;;4936575;28;20774;-79
2022/06/21 02:00:50;;;;;;;6.85;2.22;;;10.50;99.90;;;;;;4921990;29;20039;-79
2022/06/21 02:03:19;;;;;;;6.45;1.83;;;10.50;99.90;;;;;;4917499;29;20495;-79
2022/06/21 02:05:51;;;;;;;7.47;2.40;;;10.50;99.90;;;;;;4922434;28;20118;-79
2022/06/21 02:08:22;;;;;;;7.25;1.90;;;10.50;99.90;;;;;;4921228;29;20651;-78
2022/06/21 02:10:51;;;;;;;5.25;2.08;;;10.40;99.90;;;;;;4938689;28;20097;-79
2022/06/21 02:13:44;;;;;;;7.70;2.60;;;10.40;99.90;;;;;;4919905;28;20102;-79
2022/06/21 02:16:18;;;;;;;5.07;2.08;;;10.40;99.90;;;;;;4923641;28;20070;-79
2022/06/21 02:18:48;;;;;;;;;;;10.40;99.90;;;;;;4931931;28;20047;-79
2022/06/21 02:21:28;;;;;;;7.45;2.20;;;10.40;99.90;;;;;;4919298;29;19953;-79
2022/06/21 02:23:57;;;;;;;7.00;2.28;;;10.40;99.90;;;;;;4939151;28;20526;-79
2022/06/21 02:26:25;;;;;;;6.53;2.10;;;10.40;99.90;;;;;;4938521;29;20581;-79
2022/06/21 02:28:51;;;;;;;5.60;2.50;;;10.40;99.90;;;;;;4937552;28;20614;-79
2022/06/21 02:31:18;;;;;;;10.27;2.67;;;10.40;99.90;;;;;;4922328;29;20047;-80
2022/06/21 02:33:47;;;;;;;6.45;2.80;;;10.40;99.90;;;;;;4906606;29;20061;-79
2022/06/21 02:36:21;;;;;;;7.95;3.10;;;10.30;99.90;;;;;;4919566;29;20065;-78
2022/06/21 02:38:56;;;;;;;;;;;10.30;99.90;;;;;;4921456;29;21595;-79
2022/06/21 02:41:30;;;;;;;8.65;2.67;;;10.30;99.90;;;;;;4938940;29;20048;-79
2022/06/21 02:44:17;;;;;;;6.85;2.50;;;10.30;99.90;;;;;;4921539;29;20051;-79
2022/06/21 02:46:52;;;;;;;7.28;2.90;;;10.30;99.90;;;;;;4937188;28;20058;-79
2022/06/21 02:49:50;;;;;;;8.75;2.53;;;10.30;99.90;;;;;;4923075;29;20063;-78
2022/06/21 02:52:33;;;;;;;6.63;3.15;;;10.30;99.90;;;;;;4937641;28;20496;-79
2022/06/21 02:55:24;;;;;;;5.68;2.42;;;10.20;99.90;;;;;;4938489;29;20047;-80
2022/06/21 02:57:58;;;;;;;5.75;2.60;;;10.20;99.90;;;;;;4903966;29;20047;-80
2022/06/21 03:00:24;;;;;;;4.28;2.08;;;10.20;99.90;;;;;;4920947;29;20046;-79
2022/06/21 03:02:51;;;;;;;6.38;2.28;;;10.20;99.90;;;;;;4938698;29;20050;-79
2022/06/21 03:05:22;;;;;;;6.50;2.60;;;10.20;99.90;;;;;;4925843;29;20441;-79
2022/06/21 03:07:53;;;;;;;6.72;2.40;;;10.10;99.90;;;;;;4925390;29;20138;-79
2022/06/21 03:10:26;;;;;;;3.60;1.98;;;10.10;99.90;;;;;;4942683;29;20055;-79
2022/06/21 03:13:06;;;;;;;7.15;2.58;;;10.10;99.90;;;;;;4923466;29;20055;-79
2022/06/21 03:15:31;;;;;;;7.50;2.97;;;10.10;99.90;;;;;;4911912;29;20043;-78
2022/06/21 03:18:06;;;;;;;8.90;3.30;;;10.00;99.90;;;;;;4914057;29;20043;-79
2022/06/21 03:20:33;;;;;;;8.43;2.20;;;10.00;99.90;;;;;;4936960;28;20606;-79
2022/06/21 03:23:00;;;;;;;7.57;2.50;;;9.90;99.90;;;;;;4922597;29;20051;-80
2022/06/21 03:25:46;;;;;;;6.32;2.65;;;9.90;99.90;;;;;;4940680;29;20817;-80
2022/06/21 03:28:20;;;;;;;5.90;2.47;;;10.20;99.90;;;;;;4929776;29;20113;-80
2022/06/21 03:30:47;;;;;;;6.97;2.50;;;9.90;99.90;;;;;;4922693;29;20658;-80
2022/06/21 03:33:14;;;;;;;6.13;1.98;;;9.80;99.90;;;;;;4925582;29;20047;-80
2022/06/21 03:35:40;;;;;;;5.90;2.58;;;9.80;99.90;;;;;;4912131;29;21980;-80
2022/06/21 03:38:06;;;;;;;7.03;2.33;;;9.70;99.90;;;;;;4941231;29;20054;-80
2022/06/21 03:43:26;;;;;;;6.72;2.75;;;9.70;99.90;;;;;;4941923;29;20043;-79
2022/06/21 03:45:57;;;;;;;6.45;2.55;;;9.80;99.90;;;;;;4937178;29;21366;-80
2022/06/21 03:49:07;;;;;;;6.28;2.55;;;9.70;99.90;;;;;;4918692;29;20039;-80
2022/06/21 03:51:41;;;;;;;6.57;2.65;;;9.70;99.90;;;;;;4866945;29;20110;-79
2022/06/21 03:54:20;;;;;;;8.75;3.60;;;9.70;99.90;;;;;;4932576;29;20148;-81
2022/06/21 03:56:57;;;;;;;9.07;2.92;;;9.80;99.90;;;;;;4935626;29;20047;-81
2022/06/21 03:59:49;;;;;;;7.85;3.20;;;9.80;99.90;;;;;;4918023;29;20047;-81
2022/06/21 04:02:31;;;;;;;7.57;3.15;;;9.80;99.90;;;;;;4917900;29;20051;-80
2022/06/21 04:05:18;;;;;;;8.30;3.88;;;9.80;99.90;;;;;;4911234;29;20087;-82
2022/06/21 04:07:53;;;;;;;6.50;3.15;;;9.80;99.90;;;;;;4936497;28;20047;-81
2022/06/21 04:10:18;;;;;;;;;;;9.90;99.90;;;;;;4936997;29;20051;-81
2022/06/21 04:12:51;;;;;;;7.30;2.83;;;9.90;99.90;;;;;;4938350;29;20009;-81
2022/06/21 04:15:54;;;;;;;6.85;3.00;;;9.90;99.90;;;;;;4916778;29;20051;-79
2022/06/21 04:18:32;;;;;;;8.07;3.28;;;9.90;99.90;;;;;;4906652;29;20055;-80
2022/06/21 04:21:10;;;;;;;8.63;4.00;;;9.90;99.90;;;;;;4917835;29;20047;-80
2022/06/21 04:23:58;;;;;;;7.10;3.72;;;9.90;99.90;;;;;;4919924;29;20051;-80
2022/06/21 04:26:27;;;;;;;8.40;3.88;;;10.00;99.90;;;;;;4937814;29;20051;-80
2022/06/21 04:29:13;;;;;;;7.20;4.03;;;10.30;99.90;;;;;;4935872;29;20074;-80
2022/06/21 04:31:51;;;;;;;8.32;4.15;;;9.70;99.90;;;;;;4918845;29;20062;-80
2022/06/21 04:34:24;;;;;;;8.50;4.25;;;10.10;99.90;;;;;;4937220;29;20055;-80
2022/06/21 04:37:10;;;;;;;12.02;4.28;;;10.20;99.90;;;;;;4934507;29;20055;-79
2022/06/21 04:40:00;;;;;;;8.77;4.25;;;10.30;99.90;;;;;;4934495;29;20130;-81
2022/06/21 04:42:42;;;;;;;7.45;3.35;;;10.40;99.90;;;;;;4937450;29;20047;-80
2022/06/21 04:45:18;;;;;;;7.18;3.75;;;10.50;99.90;;;;;;4928342;29;20063;-81
2022/06/21 04:48:02;;;;;;;7.22;3.60;;;10.60;99.90;;;;;;4923572;29;20551;-82
2022/06/21 04:50:40;;;;;;;6.03;3.17;;;10.70;99.90;;;;;;4936292;29;20063;-79
2022/06/21 04:53:21;;;;;;;7.78;4.18;;;10.80;99.90;;;;;;4924785;29;20059;-79
2022/06/21 04:55:54;;;;;;;9.23;3.88;;;10.80;99.90;;;;;;4919524;29;20090;-79
2022/06/21 04:58:20;;;;;;;7.47;4.07;;;11.00;99.90;;;;;;4917200;29;20055;-80
2022/06/21 05:00:46;;;;;;;10.70;4.72;;;11.10;99.90;;;;;;4918822;29;20046;-79
2022/06/21 05:03:27;;;;;;;9.57;4.13;;;11.20;99.90;;;;;;4918659;29;20063;-80
2022/06/21 05:05:53;;;;;;;7.55;4.30;;;11.30;99.90;;;;;;4919182;29;20055;-79
2022/06/21 05:08:22;;;;;;;8.20;3.92;;;11.40;99.90;;;;;;4921528;29;20099;-79
2022/06/21 05:10:54;;;;;;;8.60;3.80;;;11.90;99.90;;;;;;4917615;29;20039;-80
2022/06/21 05:13:41;;;;;;;7.85;4.47;;;11.80;99.90;;;;;;4939107;29;20043;-80
2022/06/21 05:16:29;;;;;;;9.20;4.40;;;11.70;99.90;;;;;;4927479;29;20077;-79
2022/06/21 05:19:00;;;;;;;7.57;4.20;;;11.70;99.90;;;;;;4921804;28;20051;-83
2022/06/21 05:21:34;;;;;;;9.05;4.00;;;11.70;99.90;;;;;;4943871;29;20054;-83
2022/06/21 05:24:01;;;;;;;8.17;4.23;;;11.70;99.90;;;;;;4924378;29;20062;-84
2022/06/21 05:26:36;;;;;;;7.28;3.92;;;11.70;99.90;;;;;;4920140;29;20314;-85
2022/06/21 05:29:36;;;;;;;6.00;4.07;;;11.70;99.90;;;;;;4921622;29;20566;-85
2022/06/21 05:32:04;;;;;;;10.27;4.28;;;11.90;99.90;;;;;;4905108;29;20102;-86
2022/06/21 05:34:44;;;;;;;8.45;5.13;;;11.60;99.90;;;;;;4921257;29;20051;-85
2022/06/21 05:37:20;;;;;;;8.18;4.63;;;11.60;99.90;;;;;;4938659;29;20054;-84
2022/06/21 05:39:49;;;;;;;9.73;3.97;;;11.60;99.90;;;;;;4923737;29;20145;-85
2022/06/21 05:42:18;;;;;;;8.38;4.85;;;11.60;99.90;;;;;;4939202;29;20043;-85
2022/06/21 05:44:52;;;;;;;9.15;5.30;;;11.70;99.90;;;;;;4921785;29;20580;-85
2022/06/21 05:47:18;;;;;;;;;;;11.70;99.90;;;;;;4921458;29;20066;-85
2022/06/21 05:49:44;;;;;;;9.70;5.00;;;12.00;99.90;;;;;;4922248;29;19926;-85
2022/06/21 05:52:41;;;;;;;14.88;4.53;;;11.70;99.90;;;;;;4919279;29;20063;-85
2022/06/21 05:55:35;;;;;;;10.35;5.82;;;11.90;99.90;;;;;;4908630;29;20069;-85
2022/06/21 05:58:06;;;;;;;9.27;4.97;;;12.00;99.90;;;;;;4938572;29;20055;-88
2022/06/21 06:00:57;;;;;;;10.93;5.10;;;12.10;99.90;;;;;;4923139;29;20047;-88
2022/06/21 06:03:37;;;;;;;9.57;5.55;;;12.20;99.90;;;;;;4938972;29;20491;-90
2022/06/21 06:06:08;;;;;;;10.48;5.72;;;12.60;99.90;;;;;;4924975;29;20495;-83
2022/06/21 06:08:40;;;;;;;9.57;5.60;;;12.80;99.90;;;;;;4919020;29;20162;-86
2022/06/21 06:11:13;;;;;;;12.00;5.72;;;12.40;99.90;;;;;;4939387;29;20117;-90
2022/06/21 06:13:45;;;;;;;11.15;6.82;;;12.60;99.90;;;;;;4938225;29;20134;-82
2022/06/21 06:16:28;;;;;;;10.02;5.55;;;12.70;99.90;;;;;;4925280;29;20051;-80
2022/06/21 06:19:03;;;;;;;9.95;5.82;;;12.80;99.90;;;;;;4913966;29;20073;-80
2022/06/21 06:21:43;;;;;;;9.77;5.10;;;12.90;99.90;;;;;;4931880;29;20704;-77
2022/06/21 06:24:31;;;;;;;9.10;4.40;;;13.10;99.90;;;;;;4942870;29;20789;-77
2022/06/21 06:27:01;;;;;;;7.68;3.10;;;13.20;99.90;;;;;;4932473;29;20094;-77
2022/06/21 06:29:38;;;;;;;8.52;3.45;;;13.40;99.90;;;;;;4937875;29;20047;-77
2022/06/21 06:32:22;;;;;;;8.35;3.40;;;13.50;99.90;;;;;;4920787;29;20067;-76
2022/06/21 06:34:51;;;;;;;8.85;4.30;;;13.60;99.90;;;;;;4912010;29;20055;-77
2022/06/21 06:37:36;;;;;;;8.88;4.65;;;13.80;99.90;;;;;;4934966;29;20075;-77
2022/06/21 06:40:05;;;;;;;8.25;3.50;;;13.90;99.90;;;;;;4943241;29;20047;-77
2022/06/21 06:42:36;;;;;;;6.60;3.50;;;14.10;99.90;;;;;;4936727;29;20666;-77
2022/06/21 06:45:15;;;;;;;6.68;3.03;;;14.20;99.90;;;;;;4938435;28;20486;-79
2022/06/21 06:47:47;;;;;;;6.43;3.00;;;14.30;99.90;;;;;;4940588;29;20047;-79
2022/06/21 06:50:23;;;;;;;11.10;3.95;;;14.30;99.90;;;;;;4936956;29;20061;-78
2022/06/21 06:53:13;;;;;;;8.65;3.65;;;14.30;99.90;;;;;;4941014;29;20152;-78
2022/06/21 06:55:47;;;;;;;8.00;3.60;;;14.40;99.90;;;;;;4924320;29;20517;-79
2022/06/21 06:58:19;;;;;;;;;;;14.50;99.90;;;;;;4922187;29;20783;-78
2022/06/21 07:00:51;;;;;;;7.75;3.92;;;14.50;99.90;;;;;;4923803;29;19958;-78
2022/06/21 07:03:21;;;;;;;9.18;4.10;;;14.40;99.90;;;;;;4941225;29;20111;-78
2022/06/21 07:05:52;;;;;;;7.35;3.80;;;14.50;99.90;;;;;;4925021;29;20058;-78
2022/06/21 07:08:23;;;;;;;10.70;4.15;;;14.60;99.90;;;;;;4938094;29;20051;-78
2022/06/21 07:10:50;;;;;;;7.68;3.50;;;15.00;99.90;;;;;;4937290;29;20098;-78
2022/06/21 07:13:16;;;;;;;7.53;3.05;;;15.10;99.90;;;;;;4937468;29;20055;-78
2022/06/21 07:15:44;;;;;;;8.95;2.88;;;15.50;99.90;;;;;;4923700;29;20066;-79
2022/06/21 07:18:16;;;;;;;9.88;2.75;;;15.80;99.90;;;;;;4938972;29;20050;-76
2022/06/21 07:20:44;;;;;;;7.30;2.60;;;16.00;99.90;;;;;;4933090;29;20147;-77
2022/06/21 07:23:15;;;;;;;9.43;3.05;;;16.10;99.90;;;;;;4919044;29;20163;-79
2022/06/21 07:25:45;;;;;;;7.80;3.13;;;16.30;99.90;;;;;;4926520;29;20585;-78
2022/06/21 07:28:28;;;;;;;15.15;3.53;;;16.60;99.90;;;;;;4936667;29;20074;-78
2022/06/21 07:30:58;;;;;;;5.25;3.10;;;16.90;99.90;;;;;;4935535;29;20113;-78
2022/06/21 07:33:32;;;;;;;8.07;3.35;;;17.10;99.90;;;;;;4919695;29;20072;-78
2022/06/21 07:36:01;;;;;;;;;;;17.40;99.90;;;;;;4939664;29;20817;-78
2022/06/21 07:38:54;;;;;;;8.90;3.20;;;17.60;99.90;;;;;;4923403;29;19926;-78
2022/06/21 07:41:30;;;;;;;7.22;2.33;;;17.90;99.90;;;;;;4934786;29;20055;-78
2022/06/21 07:44:02;;;;;;;6.20;2.70;;;18.20;99.90;;;;;;4930902;28;20058;-79
2022/06/21 07:46:36;;;;;;;7.45;2.50;;;18.20;99.90;;;;;;4915507;29;20375;-79
2022/06/21 07:49:10;;;;;;;8.40;2.65;;;18.10;99.90;;;;;;4936033;29;20047;-79
2022/06/21 07:51:40;;;;;;;7.73;2.60;;;17.80;99.90;;;;;;4917924;29;20059;-78
2022/06/21 07:54:19;;;;;;;7.75;2.80;;;17.60;99.90;;;;;;4935717;29;20406;-78
2022/06/21 07:56:53;;;;;;;11.90;2.80;;;17.40;99.90;;;;;;4935426;29;20244;-78
2022/06/21 07:59:32;;;;;;;5.80;2.72;;;17.30;99.90;;;;;;4917341;29;20055;-78
2022/06/21 08:07:43;;;;;;;8.10;3.33;;;17.20;99.90;;;;;;4922834;29;20086;-78
2022/06/21 08:10:24;;;;;;;7.78;2.53;;;17.00;99.90;;;;;;4931689;29;20720;-78
2022/06/21 08:12:50;;;;;;;7.35;2.72;;;17.20;99.90;;;;;;4939740;29;20062;-79
2022/06/21 08:15:17;;;;;;;7.68;2.70;;;17.40;99.90;;;;;;4921756;29;20042;-78
2022/06/21 08:17:58;;;;;;;7.97;2.47;;;17.70;99.90;;;;;;4919572;29;20377;-78
2022/06/21 08:20:38;;;;;;;5.35;2.75;;;18.00;99.90;;;;;;4918069;29;20043;-78
2022/06/21 08:23:16;;;;;;;4.45;2.35;;;18.30;99.90;;;;;;4916636;29;20117;-79
2022/06/21 08:25:56;;;;;;;6.28;2.72;;;18.50;99.90;;;;;;4917013;29;20047;-78
2022/06/21 08:28:28;;;;;;;10.70;2.55;;;18.60;99.90;;;;;;4917266;29;20141;-78
2022/06/21 08:31:00;;;;;;;7.97;2.33;;;18.70;99.90;;;;;;4917197;29;20446;-78
2022/06/21 08:33:29;;;;;;;6.57;2.55;;;18.80;99.90;;;;;;4934718;29;20574;-78
2022/06/21 08:36:05;;;;;;;7.13;2.10;;;18.90;99.90;;;;;;4937996;29;20067;-78
2022/06/21 08:38:43;;;;;;;4.95;1.90;;;18.80;99.90;;;;;;4938285;28;20586;-78
2022/06/21 08:41:55;;;;;;;6.43;1.90;;;18.80;99.90;;;;;;4929846;29;20593;-79
2022/06/21 08:44:38;;;;;;;8.38;1.50;;;18.80;99.90;;;;;;4934480;29;20805;-78
2022/06/21 08:47:18;;;;;;;7.82;1.70;;;18.90;99.90;;;;;;4929629;29;20876;-79
2022/06/21 08:50:30;;;;;;;9.23;2.15;;;18.70;99.90;;;;;;4919931;29;20126;-78
2022/06/21 08:53:45;;;;;;;6.38;2.03;;;18.50;99.90;;;;;;4922239;29;20125;-78
2022/06/21 08:56:11;;;;;;;;;;;18.40;99.90;;;;;;4877276;29;20051;-78
2022/06/21 08:58:57;;;;;;;4.57;1.80;;;18.60;99.90;;;;;;4947353;28;20012;-78
2022/06/21 09:01:32;;;;;;;5.35;1.88;;;18.70;99.90;;;;;;4940625;28;20055;-79
2022/06/21 09:04:24;;;;;;;7.40;2.22;;;18.90;99.90;;;;;;4940358;28;20047;-78
2022/06/21 09:07:05;;;;;;;5.55;1.85;;;18.90;99.90;;;;;;4945103;29;20504;-78
2022/06/21 09:09:49;;;;;;;5.88;2.00;;;19.10;99.90;;;;;;4934178;29;20055;-78
2022/06/21 09:12:37;;;;;;;8.70;1.40;;;19.30;99.90;;;;;;4941036;29;20157;-78
2022/06/21 09:15:14;;;;;;;5.07;1.70;;;19.50;99.90;;;;;;4944703;29;20043;-78
2022/06/21 09:18:17;;;;;;;5.75;2.13;;;19.70;99.90;;;;;;4937671;28;20117;-78
2022/06/21 09:20:58;;;;;;;5.07;1.83;;;19.70;99.90;;;;;;4939102;29;20055;-77
2022/06/21 09:23:49;;;;;;;4.60;1.50;;;19.60;99.90;;;;;;4921877;28;20594;-76
2022/06/21 09:26:43;;;;;;;3.08;1.23;;;19.40;99.90;;;;;;4924718;29;20051;-76
2022/06/21 09:29:23;;;;;;;5.13;1.88;;;19.50;99.90;;;;;;4941496;28;20429;-77
2022/06/21 09:32:07;;;;;;;5.47;1.50;;;19.60;99.90;;;;;;4923684;29;20102;-78
2022/06/21 09:35:00;;;;;;;8.60;2.22;;;19.80;99.90;;;;;;4927490;28;20051;-78
2022/06/21 09:37:39;;;;;;;3.63;1.38;;;19.90;99.90;;;;;;4921863;29;20051;-78
2022/06/21 09:40:20;;;;;;;6.13;1.10;;;20.00;99.90;;;;;;4944074;28;20058;-77
2022/06/21 09:42:52;;;;;;;6.32;1.70;;;20.20;99.40;;;;;;4926613;28;20142;-77
2022/06/21 09:45:46;;;;;;;3.65;1.60;;;20.30;99.90;;;;;;4927888;29;20047;-77
2022/06/21 09:48:29;;;;;;;5.63;1.50;;;20.50;99.60;;;;;;4935181;29;20145;-76
2022/06/21 09:50:59;;;;;;;4.70;1.00;;;20.60;99.90;;;;;;4940503;29;20131;-76
2022/06/21 09:53:47;;;;;;;5.10;1.35;;;20.70;99.90;;;;;;4922663;29;20077;-76
2022/06/21 09:56:43;;;;;;;4.68;1.52;;;20.80;99.90;;;;;;4921957;29;20059;-76
2022/06/21 09:59:26;;;;;;;6.82;1.38;;;20.90;98.20;;;;;;4944072;29;20059;-76
2022/06/21 10:02:24;;;;;;;3.90;1.27;;;21.00;99.50;;;;;;4940411;28;20993;-76
2022/06/21 10:05:19;;;;;;;4.65;1.30;;;20.90;98.20;;;;;;4939555;29;20050;-76
2022/06/21 10:08:01;;;;;;;5.07;1.27;;;20.90;99.10;;;;;;4920538;29;20055;-78
2022/06/21 10:10:49;;;;;;;6.30;1.35;;;20.80;99.70;;;;;;4923399;29;20421;-78
2022/06/21 10:13:48;;;;;;;4.68;1.95;;;20.50;99.60;;;;;;4955768;28;20601;-78
2022/06/21 10:16:26;;;;;;;8.05;1.35;;;20.30;99.90;;;;;;4907117;29;20075;-78
2022/06/21 10:19:25;;;;;;;4.03;1.30;;;20.10;99.40;;;;;;4906407;29;20067;-78
2022/06/21 10:22:19;;;;;;;5.15;1.17;;;20.00;99.90;;;;;;4923217;29;20110;-78
2022/06/21 10:25:41;;;;;;;5.25;1.42;;;20.00;99.80;;;;;;4941458;29;20059;-77
2022/06/21 10:28:22;;;;;;;4.75;1.17;;;20.00;99.90;;;;;;4843825;29;20053;-77
2022/06/21 10:31:12;;;;;;;4.07;0.95;;;20.20;99.90;;;;;;4920428;29;20825;-78
2022/06/21 10:34:06;;;;;;;7.50;1.02;;;20.40;98.70;;;;;;4920455;29;20620;-78
2022/06/21 10:37:13;;;;;;;4.97;1.08;;;20.60;96.60;;;;;;4937638;29;20074;-78
2022/06/21 10:40:09;;;;;;;4.65;1.00;;;20.80;96.40;;;;;;4938062;28;20554;-78
2022/06/21 10:42:49;;;;;;;3.67;0.82;;;21.00;97.20;;;;;;4921568;29;20086;-78
2022/06/21 10:45:45;;;;;;;5.57;0.90;;;21.20;97.50;;;;;;4925402;29;20055;-78
2022/06/21 10:48:25;;;;;;;5.22;1.20;;;21.30;97.40;;;;;;4936941;29;20047;-78
2022/06/21 10:51:13;;;;;;;3.20;1.00;;;21.50;97.70;;;;;;4942789;29;20086;-78
2022/06/21 10:53:48;;;;;;;4.28;1.02;;;21.50;97.90;;;;;;4925284;29;20865;-78
2022/06/21 11:02:47;;;;;;;4.75;0.93;;;21.70;97.20;;;;;;4934095;28;20078;-76
2022/06/21 11:05:18;;;;;;;4.68;1.27;;;21.80;96.40;;;;;;4915969;29;20063;-76
2022/06/21 11:08:03;;;;;;;4.00;1.15;;;21.80;95.40;;;;;;4933007;29;20048;-76
2022/06/21 11:10:35;;;;;;;5.28;1.05;;;21.70;94.90;;;;;;4917067;29;20126;-76
2022/06/21 11:13:05;;;;;;;3.38;1.02;;;21.80;94.90;;;;;;4933280;28;20047;-76
2022/06/21 11:15:49;;;;;;;4.35;0.93;;;21.80;95.20;;;;;;4916563;29;20086;-77
2022/06/21 11:18:39;;;;;;;2.75;0.73;;;21.70;94.40;;;;;;4935056;28;20873;-77
2022/06/21 11:21:26;;;;;;;3.28;0.95;;;21.80;94.00;;;;;;4935301;29;20059;-77
2022/06/21 11:24:12;;;;;;;3.40;0.98;;;22.00;95.50;;;;;;4919500;29;20083;-77
2022/06/21 11:27:14;;;;;;;4.97;0.90;;;22.10;96.00;;;;;;4918808;29;20534;-77
2022/06/21 11:30:18;;;;;;;5.75;1.10;;;22.20;95.30;;;;;;4934845;29;20130;-75
2022/06/21 11:33:09;;;;;;;6.00;1.20;;;22.20;94.50;;;;;;4879319;29;20048;-75
2022/06/21 11:35:44;;;;;;;4.57;1.02;;;22.30;93.90;;;;;;4927744;29;20754;-75
2022/06/21 11:38:41;;;;;;;1.65;0.80;;;22.30;93.70;;;;;;4936548;29;20086;-75
2022/06/21 11:42:04;;;;;;;3.35;0.73;;;22.40;93.20;;;;;;4934415;29;20051;-74
2022/06/21 11:44:39;;;;;;;3.63;0.85;;;22.50;94.00;;;;;;4919696;29;20051;-75
2022/06/21 11:47:12;;;;;;;4.15;0.90;;;22.60;93.80;;;;;;4902655;28;20732;-73
2022/06/21 11:50:19;;;;;;;4.43;0.90;;;22.70;93.00;;;;;;4917836;29;20087;-76
2022/06/21 11:53:03;;;;;;;2.72;0.93;;;22.80;91.30;;;;;;4920381;29;20079;-75
2022/06/21 11:55:47;;;;;;;4.18;1.00;;;22.90;92.10;;;;;;4935128;29;20047;-75
2022/06/21 11:58:33;;;;;;;2.85;0.73;;;22.90;91.50;;;;;;4911566;29;20055;-76
2022/06/21 12:01:22;;;;;;;3.60;0.93;;;23.00;93.00;;;;;;4934014;29;20058;-75
2022/06/21 12:04:19;;;;;;;3.83;0.75;;;23.00;92.20;;;;;;4916985;29;20063;-76
2022/06/21 12:06:57;;;;;;;3.53;0.82;;;23.10;92.20;;;;;;4933601;28;20079;-76
2022/06/21 12:09:38;;;;;;;3.60;0.80;;;23.20;92.50;;;;;;4938621;29;20097;-76
2022/06/21 12:12:25;;;;;;;4.85;0.90;;;23.40;93.00;;;;;;4933345;29;20047;-76
2022/06/21 12:15:26;;;;;;;6.78;0.90;;;23.40;92.30;;;;;;4915766;29;20463;-83
2022/06/21 12:17:59;;;;;;;7.95;0.90;;;23.50;90.70;;;;;;4928784;29;20150;-75
2022/06/21 12:20:40;;;;;;;4.32;0.80;;;23.40;90.50;;;;;;4934697;28;20109;-74
2022/06/21 12:23:18;;;;;;;3.72;0.70;;;23.40;92.20;;;;;;4937100;29;20134;-74
2022/06/21 12:25:45;;;;;;;4.30;0.90;;;23.50;90.90;;;;;;4935411;28;23698;-74
2022/06/21 12:28:17;;;;;;;3.63;0.70;;;23.50;91.70;;;;;;4933930;29;20609;-75
2022/06/21 12:30:43;;;;;;;3.47;0.70;;;23.50;91.20;;;;;;4916803;29;20078;-78
2022/06/21 12:33:13;;;;;;;3.60;0.80;;;23.60;91.10;;;;;;4915526;29;20055;-79
2022/06/21 12:35:57;;;;;;;4.43;0.85;;;23.60;90.80;;;;;;4934367;29;20130;-80
2022/06/21 12:38:43;;;;;;;2.83;0.75;;;23.60;90.40;;;;;;4933853;29;20039;-81
2022/06/21 12:41:30;;;;;;;6.55;1.00;;;23.50;89.70;;;;;;4928258;29;20210;-81
2022/06/21 12:44:07;;;;;;;4.13;0.75;;;23.70;91.20;;;;;;4935642;29;20071;-81
2022/06/21 12:46:43;;;;;;;3.25;0.80;;;23.70;90.10;;;;;;4914729;29;20433;-80
2022/06/21 12:49:35;;;;;;;2.88;0.70;;;23.80;91.20;;;;;;4931325;29;20102;-78
2022/06/21 12:52:25;;;;;;;3.05;1.58;;;23.90;89.00;;;;;;4909809;29;20056;-79
2022/06/21 12:55:35;;;;;;;7.45;0.82;;;23.90;87.10;;;;;;4928687;29;20796;-79
2022/06/21 12:58:38;;;;;;;3.80;0.90;;;23.90;85.90;;;;;;4872604;29;20077;-78
2022/06/21 13:01:21;;;;;;;2.88;0.77;;;24.00;84.50;;;;;;4860135;29;20060;-79
2022/06/21 13:04:22;;;;;;;3.25;0.70;;;23.90;88.00;;;;;;4908923;29;20091;-78
2022/06/21 13:07:03;;;;;;;3.30;0.95;;;23.90;88.20;;;;;;4935890;29;20109;-77
2022/06/21 13:10:06;;;;;;;2.35;0.80;;;23.70;86.30;;;;;;4935820;29;20235;-77
2022/06/21 13:12:35;;;;;;;3.38;0.75;;;23.50;87.30;;;;;;4933320;29;20505;-77
2022/06/21 13:15:26;;;;;;;2.17;0.60;;;23.30;88.90;;;;;;4913710;29;20055;-77
2022/06/21 13:18:12;;;;;;;4.97;0.68;;;23.20;88.60;;;;;;4933415;29;20051;-77
2022/06/21 13:21:01;;;;;;;2.20;0.60;;;23.20;88.50;;;;;;4916674;29;20509;-77
2022/06/21 13:24:01;;;;;;;2.55;0.70;;;23.20;89.30;;;;;;4915933;29;20158;-77
2022/06/21 13:26:59;;;;;;;3.28;0.60;;;23.20;87.10;;;;;;4918449;29;20154;-77
2022/06/21 13:29:56;;;;;;;5.35;1.27;;;23.30;90.00;;;;;;4916674;29;20062;-77
2022/06/21 13:32:26;;;;;;;6.30;0.77;;;23.40;89.70;;;;;;4932311;28;20661;-77
2022/06/21 13:34:51;;;;;;;3.17;0.90;;;23.60;89.70;;;;;;4935848;29;20813;-78
2022/06/21 13:37:59;;;;;;;5.18;1.05;;;23.70;89.20;;;;;;4933971;29;20052;-77
2022/06/21 13:40:28;;;;;;;5.05;1.08;;;23.90;86.40;;;;;;4874449;29;20056;-77
2022/06/21 13:43:06;;;;;;;3.63;0.60;;;24.10;86.80;;;;;;4911783;29;20811;-77
2022/06/21 13:45:40;;;;;;;4.82;0.98;;;24.30;86.90;;;;;;4936251;29;20593;-77
2022/06/21 13:48:43;;;;;;;4.10;0.77;;;24.40;87.40;;;;;;4940377;29;20051;-77
2022/06/21 13:51:14;;;;;;;4.50;1.00;;;24.40;86.30;;;;;;4920900;29;21025;-75
2022/06/21 13:54:10;;;;;;;6.95;1.30;;;24.50;85.60;;;;;;4929069;29;20049;-77
2022/06/21 13:56:48;;;;;;;2.95;0.80;;;24.60;86.30;;;;;;4915181;29;20043;-77
2022/06/21 13:59:21;;;;;;;3.22;0.80;;;24.60;87.80;;;;;;4933625;29;20051;-80
2022/06/21 14:02:26;;;;;;;5.28;0.70;;;24.70;86.30;;;;;;4918891;29;20047;-79
2022/06/21 14:04:58;;;;;;;2.20;0.60;;;24.80;87.10;;;;;;4920333;29;20199;-80